.
WxDataArchive / Data Records for 2013-03-21
2013-03-20 March 2013 2013-03-22

Data Records for Thursday, 21 March 2013

Time	Temp	Chill	HIndex	Humid	Dewpt	 Wind 	HiWind	WindDir	Rain 	Barom 
-----	----	-----	------	-----	-----	------	------	-------	-----	----- 
00:00	19.5	19.5	19.5	68	10.7	0	2	338	0.00	30.009 
00:05	19.5	19.5	19.5	69	11.0	0	2	338	0.00	30.009 
00:10	19.5	19.5	19.5	70	11.3	0	1	338	0.00	30.009 
00:15	19.5	19.5	19.5	71	11.7	0	1	338	0.00	30.009 
00:20	19.4	19.4	19.4	72	11.9	0	2	338	0.00	30.009 
00:25	19.4	19.4	19.4	73	12.2	0	2	338	0.00	30.009 
00:30	19.4	19.4	19.4	73	12.2	0	2	315	0.00	30.010 
00:35	19.4	19.4	19.4	73	12.2	0	2	315	0.00	30.010 
00:40	19.4	19.4	19.4	72	11.9	0	2	315	0.00	30.010 
00:45	19.4	19.4	19.4	71	11.6	1	4	315	0.00	30.008 
00:50	19.4	19.4	19.4	69	10.9	1	4	338	0.00	30.008 
00:55	19.4	19.4	19.4	69	10.9	1	3	315	0.00	30.008 
01:00	19.2	19.2	19.2	68	10.4	1	2	315	0.00	30.006 
01:05	19.2	19.2	19.2	68	10.4	0	2	315	0.00	30.006 
01:10	19.2	19.2	19.2	68	10.4	1	3	315	0.00	30.006 
01:15	19.2	19.2	19.2	68	10.4	1	4	292	0.00	30.003 
01:20	19.2	19.2	19.2	68	10.4	1	3	270	0.00	30.003 
01:25	19.2	19.2	19.2	68	10.4	0	2	292	0.00	30.003 
01:30	19.1	19.1	19.1	69	10.6	0	2	292	0.00	30.000 
01:35	19.1	19.1	19.1	69	10.6	1	4	292	0.00	30.000 
01:40	19.1	19.1	19.1	69	10.6	1	3	248	0.00	30.000 
01:45	19.1	19.1	19.1	69	10.6	1	6	338	0.00	30.002 
01:50	18.9	18.9	18.9	69	10.4	1	3	338	0.00	30.002 
01:55	18.9	18.9	18.9	69	10.4	0	3	292	0.00	30.002 
02:00	18.8	18.8	18.8	69	10.3	1	3	292	0.00	29.995 
02:05	18.8	18.8	18.8	70	10.7	0	2	292	0.00	29.995 
02:10	18.6	18.6	18.6	70	10.5	0	2	292	0.00	29.995 
02:15	18.6	18.6	18.6	71	10.8	0	1	292	0.00	29.993 
02:20	18.6	18.6	18.6	71	10.8	0	2	292	0.00	29.993 
02:25	18.6	18.6	18.6	72	11.1	0	1	292	0.00	29.993 
02:30	18.6	18.6	18.6	72	11.1	0	1	292	0.00	29.993 
02:35	18.6	18.6	18.6	73	11.4	0	1	292	0.00	29.993 
02:40	18.6	18.6	18.6	73	11.4	0	2	292	0.00	29.993 
02:45	18.6	18.6	18.6	73	11.4	0	2	292	0.00	29.994 
02:50	18.6	18.6	18.6	73	11.4	0	1	292	0.00	29.994 
02:55	18.6	18.6	18.6	73	11.4	0	1	292	0.00	29.994 
03:00	18.6	18.6	18.6	73	11.4	1	3	292	0.00	29.993 
03:05	18.6	18.6	18.6	73	11.4	0	2	270	0.00	29.993 
03:10	18.6	18.6	18.6	73	11.4	1	3	270	0.00	29.993 
03:15	18.6	18.6	18.6	73	11.4	1	2	270	0.00	29.987 
03:20	18.6	18.6	18.6	73	11.4	1	3	270	0.00	29.987 
03:25	18.6	18.6	18.6	73	11.4	0	2	270	0.00	29.987 
03:30	18.6	18.6	18.6	73	11.4	0	2	270	0.00	29.981 
03:35	18.4	18.4	18.4	73	11.2	1	2	270	0.00	29.981 
03:40	18.4	18.4	18.4	74	11.5	1	3	270	0.00	29.981 
03:45	18.4	18.4	18.4	74	11.5	0	1	270	0.00	29.980 
03:50	18.4	18.4	18.4	75	11.8	0	2	270	0.00	29.980 
03:55	18.3	18.3	18.3	75	11.7	0	1	270	0.00	29.980 
04:00	18.3	18.3	18.3	76	12.0	0	3	270	0.00	29.979 
04:05	18.1	18.1	18.1	76	11.8	0	3	270	0.00	29.979 
04:10	17.8	17.8	17.8	76	11.5	0	1	270	0.00	29.979 
04:15	17.7	17.7	17.7	76	11.4	0	1	270	0.00	29.978 
04:20	17.5	17.5	17.5	77	11.5	0	2	270	0.00	29.978 
04:25	17.5	17.5	17.5	77	11.5	0	2	270	0.00	29.978 
04:30	17.3	17.3	17.3	77	11.3	0	2	270	0.00	29.978 
04:35	17.2	17.2	17.2	77	11.3	0	2	270	0.00	29.978 
04:40	17.2	17.2	17.2	78	11.5	0	2	270	0.00	29.978 
04:45	17.0	17.0	17.0	78	11.3	0	2	270	0.00	29.978 
04:50	17.0	17.0	17.0	78	11.3	0	2	270	0.00	29.978 
04:55	17.0	17.0	17.0	79	11.6	0	1	270	0.00	29.978 
05:00	17.0	17.0	17.0	79	11.6	0	1	270	0.00	29.977 
05:05	16.9	16.9	16.9	79	11.5	1	2	270	0.00	29.977 
05:10	16.9	16.9	16.9	79	11.5	0	2	270	0.00	29.977 
05:15	16.7	16.7	16.7	80	11.6	0	2	270	0.00	29.974 
05:20	16.7	16.7	16.7	80	11.6	1	2	270	0.00	29.974 
05:25	16.7	16.7	16.7	80	11.6	1	2	270	0.00	29.974 
05:30	16.5	16.5	16.5	80	11.4	0	1	270	0.00	29.970 
05:35	16.5	16.5	16.5	80	11.4	0	2	270	0.00	29.970 
05:40	16.5	16.5	16.5	80	11.4	1	2	270	0.00	29.970 
05:45	16.4	16.4	16.4	80	11.3	1	2	270	0.00	29.971 
05:50	16.4	16.4	16.4	80	11.3	1	2	270	0.00	29.971 
05:55	16.4	16.4	16.4	81	11.6	1	2	270	0.00	29.971 
06:00	16.5	16.5	16.5	81	11.7	1	3	270	0.00	29.975 
06:05	16.4	16.4	16.4	81	11.6	1	2	270	0.00	29.975 
06:10	16.4	16.4	16.4	80	11.3	1	2	270	0.00	29.975 
06:15	16.2	16.2	16.2	80	11.1	1	2	270	0.00	29.975 
06:20	16.2	16.2	16.2	81	11.4	1	2	270	0.00	29.975 
06:25	16.2	16.2	16.2	81	11.4	1	2	270	0.00	29.975 
06:30	16.1	16.1	16.1	81	11.3	1	2	270	0.00	29.976 
06:35	16.1	16.1	16.1	81	11.3	0	3	270	0.00	29.976 
06:40	16.2	16.2	16.2	81	11.4	0	2	270	0.00	29.976 
06:45	16.2	16.2	16.2	81	11.4	0	2	270	0.00	29.975 
06:50	16.2	16.2	16.2	81	11.4	1	2	270	0.00	29.975 
06:55	16.2	16.2	16.2	81	11.4	1	3	270	0.00	29.975 
07:00	16.2	16.2	16.2	81	11.4	1	3	270	0.00	29.974 
07:05	16.2	16.2	16.2	80	11.1	0	1	270	0.00	29.974 
07:10	16.2	16.2	16.2	80	11.1	1	4	270	0.00	29.974 
07:15	16.2	16.2	16.2	80	11.1	0	2	270	0.00	29.980 
07:20	16.2	16.2	16.2	80	11.1	1	4	270	0.00	29.980 
07:25	16.2	16.2	16.2	80	11.1	1	3	270	0.00	29.980 
07:30	16.2	16.2	16.2	80	11.1	1	3	270	0.00	29.982 
07:35	16.4	16.4	16.4	80	11.3	1	3	270	0.00	29.982 
07:40	16.4	16.4	16.4	80	11.3	1	2	270	0.00	29.982 
07:45	16.5	16.5	16.5	80	11.4	1	2	270	0.00	29.983 
07:50	16.5	16.5	16.5	80	11.4	1	2	270	0.00	29.983 
07:55	16.5	16.5	16.5	80	11.4	1	3	248	0.00	29.983 
08:00	16.5	16.5	16.5	79	11.1	1	3	248	0.00	29.983 
08:05	16.5	16.5	16.5	79	11.1	1	4	248	0.00	29.983 
08:10	16.5	16.5	16.5	79	11.1	1	2	248	0.00	29.983 
08:15	16.7	16.7	16.7	79	11.3	0	2	248	0.00	29.986 
08:20	16.9	16.9	16.9	79	11.5	0	3	248	0.00	29.986 
08:25	17.0	17.0	17.0	79	11.6	1	4	248	0.00	29.986 
08:30	17.2	17.2	17.2	79	11.8	1	3	248	0.00	29.986 
08:35	17.5	17.5	17.5	79	12.1	1	4	248	0.00	29.986 
08:40	17.8	17.8	17.8	79	12.4	1	4	248	0.00	29.986 
08:45	18.1	18.1	18.1	78	12.4	1	3	248	0.00	29.985 
08:50	18.3	18.3	18.3	78	12.6	1	2	248	0.00	29.985 
08:55	18.4	18.4	18.4	78	12.7	1	4	248	0.00	29.985 
09:00	18.4	18.4	18.4	77	12.4	2	4	270	0.00	29.994 
09:05	18.4	18.4	18.4	78	12.7	1	3	270	0.00	29.994 
09:10	18.6	18.6	18.6	78	12.9	1	5	270	0.00	29.994 
09:15	18.8	18.8	18.8	78	13.1	1	4	248	0.00	29.997 
09:20	19.1	19.1	19.1	78	13.4	1	3	248	0.00	29.997 
09:25	19.4	19.4	19.4	78	13.7	2	4	248	0.00	29.997 
09:30	19.9	19.9	19.9	79	14.5	1	4	248	0.00	29.995 
09:35	20.2	20.2	20.2	79	14.8	1	4	248	0.00	29.995 
09:40	20.5	20.5	20.5	79	15.0	2	3	248	0.00	29.995 
09:45	20.6	20.6	20.6	79	15.1	1	4	248	0.00	29.993 
09:50	20.8	20.8	20.8	78	15.0	2	5	248	0.00	29.993 
09:55	21.0	21.0	21.0	77	14.9	2	4	248	0.00	29.993 
10:00	21.4	21.4	21.4	77	15.3	2	5	248	0.00	29.997 
10:05	21.6	21.6	21.6	77	15.5	2	4	248	0.00	29.997 
10:10	21.9	21.9	21.9	76	15.5	2	4	248	0.00	29.997 
10:15	22.2	22.2	22.2	75	15.5	2	6	248	0.00	29.993 
10:20	22.7	22.7	22.7	75	16.0	2	4	248	0.00	29.993 
10:25	22.9	22.9	22.9	73	15.6	2	5	248	0.00	29.993 
10:30	23.2	23.2	23.2	73	15.9	2	5	315	0.00	29.995 
10:35	23.6	23.6	23.6	73	16.2	2	4	292	0.00	29.995 
10:40	24.1	24.1	24.1	72	16.4	1	3	270	0.00	29.995 
10:45	24.4	24.4	24.4	72	16.7	2	5	270	0.00	29.993 
10:50	24.2	24.2	24.2	71	16.2	1	4	248	0.00	29.993 
10:55	24.8	24.8	24.8	71	16.8	1	4	248	0.00	29.993 
11:00	25.0	25.0	25.0	71	16.9	1	5	338	0.00	29.994 
11:05	25.3	25.3	25.3	70	16.9	2	6	248	0.00	29.994 
11:10	25.1	25.1	25.1	69	16.4	2	4	315	0.00	29.994 
11:15	24.8	24.8	24.8	70	16.4	2	4	248	0.00	30.000 
11:20	24.7	24.7	24.7	70	16.3	2	5	270	0.00	30.000 
11:25	25.1	25.1	25.1	71	17.0	2	4	248	0.00	30.000 
11:30	25.8	25.8	25.8	69	17.1	2	5	315	0.00	29.996 
11:35	25.6	25.6	25.6	68	16.5	2	7	248	0.00	29.996 
11:40	26.0	26.0	26.0	67	16.6	2	4	292	0.00	29.996 
11:45	26.1	26.1	26.1	67	16.7	2	6	270	0.00	29.995 
11:50	26.4	26.4	26.4	66	16.6	2	5	270	0.00	29.995 
11:55	27.0	27.0	27.0	65	16.8	3	6	270	0.00	29.995 
12:00	26.9	26.9	26.9	64	16.4	3	5	270	0.00	29.997 
12:05	26.7	26.7	26.7	64	16.2	3	6	270	0.00	29.997 
12:10	26.6	26.6	26.6	65	16.4	2	6	270	0.00	29.997 
12:15	26.4	26.4	26.4	65	16.3	3	5	270	0.00	30.000 
12:20	26.9	26.9	26.9	67	17.4	2	4	270	0.00	30.000 
12:25	27.3	27.3	27.3	68	18.2	2	5	270	0.00	30.000 
12:30	27.5	27.5	27.5	67	18.0	3	7	315	0.00	30.003 
12:35	28.2	28.2	28.2	65	18.0	2	5	315	0.00	30.003 
12:40	28.1	28.1	28.1	63	17.2	2	6	292	0.00	30.003 
12:45	28.1	28.1	28.1	63	17.2	2	7	270	0.00	30.002 
12:50	28.4	28.4	28.4	60	16.3	2	6	315	0.00	30.002 
12:55	28.1	28.1	28.1	60	16.0	3	7	248	0.00	30.002 
13:00	28.7	28.7	28.7	61	17.0	2	6	270	0.00	30.000 
13:05	29.4	29.4	29.4	58	16.5	3	7	270	0.00	30.000 
13:10	29.7	29.7	29.7	57	16.4	3	6	270	0.00	30.000 
13:15	29.4	29.4	29.4	58	16.5	2	5	270	0.00	30.000 
13:20	30.0	30.0	30.0	58	17.0	3	6	338	0.00	30.000 
13:25	29.8	29.8	29.8	57	16.4	2	6	315	0.00	30.000 
13:30	30.6	30.6	30.6	57	17.2	2	6	292	0.00	29.998 
13:35	30.1	30.1	30.1	54	15.5	3	6	270	0.00	29.998 
13:40	30.4	30.4	30.4	56	16.6	3	6	338	0.00	29.998 
13:45	31.3	31.3	31.3	55	17.0	3	6	292	0.00	29.992 
13:50	31.5	27.5	31.5	52	15.9	4	10	292	0.00	29.992 
13:55	31.8	31.8	31.8	52	16.2	2	4	248	0.00	29.992 
14:00	31.2	31.2	31.2	51	15.2	3	7	315	0.00	29.992 
14:05	31.0	31.0	31.0	53	15.9	2	5	248	0.00	29.992 
14:10	30.9	30.9	30.9	54	16.2	2	8	248	0.00	29.992 
14:15	30.9	30.9	30.9	55	16.7	2	5	270	0.00	29.990 
14:20	31.0	31.0	31.0	54	16.3	3	6	292	0.00	29.990 
14:25	31.2	31.2	31.2	54	16.5	2	6	248	0.00	29.990 
14:30	30.7	30.7	30.7	53	15.6	2	6	0	0.00	29.991 
14:35	30.1	30.1	30.1	54	15.5	3	5	338	0.00	29.991 
14:40	30.4	30.4	30.4	54	15.8	2	6	338	0.00	29.991 
14:45	30.6	30.6	30.6	52	15.1	3	9	248	0.00	29.989 
14:50	30.6	30.6	30.6	54	16.0	2	4	315	0.00	29.989 
14:55	30.9	30.9	30.9	54	16.2	2	4	292	0.00	29.989 
15:00	31.3	31.3	31.3	52	15.7	1	4	248	0.00	29.987 
15:05	31.2	31.2	31.2	53	16.1	2	4	315	0.00	29.987 
15:10	30.9	30.9	30.9	52	15.4	1	4	292	0.00	29.987 
15:15	30.9	30.9	30.9	53	15.8	2	5	292	0.00	29.984 
15:20	31.0	31.0	31.0	54	16.3	2	7	248	0.00	29.984 
15:25	30.9	30.9	30.9	54	16.2	2	5	270	0.00	29.984 
15:30	30.9	30.9	30.9	54	16.2	2	7	248	0.00	29.980 
15:35	30.9	30.9	30.9	54	16.2	3	5	248	0.00	29.980 
15:40	30.9	30.9	30.9	54	16.2	2	5	270	0.00	29.980 
15:45	30.9	30.9	30.9	53	15.8	2	5	270	0.00	29.981 
15:50	30.7	30.7	30.7	52	15.2	3	9	270	0.00	29.981 
15:55	30.6	30.6	30.6	53	15.5	2	5	338	0.00	29.981 
16:00	30.6	30.6	30.6	54	16.0	2	6	270	0.00	29.986 
16:05	30.6	30.6	30.6	54	16.0	2	5	270	0.00	29.986 
16:10	30.6	30.6	30.6	54	16.0	2	4	270	0.00	29.986 
16:15	30.6	30.6	30.6	54	16.0	2	5	270	0.00	29.981 
16:20	30.7	30.7	30.7	54	16.0	1	3	292	0.00	29.981 
16:25	31.2	31.2	31.2	53	16.1	2	5	292	0.00	29.981 
16:30	31.3	31.3	31.3	52	15.7	2	4	292	0.00	29.980 
16:35	31.2	31.2	31.2	52	15.6	2	5	292	0.00	29.980 
16:40	31.3	31.3	31.3	51	15.3	1	4	315	0.00	29.980 
16:45	31.3	31.3	31.3	51	15.3	1	3	248	0.00	29.979 
16:50	31.5	31.5	31.5	50	15.0	2	5	338	0.00	29.979 
16:55	31.6	31.6	31.6	48	14.2	2	4	292	0.00	29.979 
17:00	31.6	31.6	31.6	48	14.2	3	6	292	0.00	29.978 
17:05	31.8	31.8	31.8	47	13.9	2	5	338	0.00	29.978 
17:10	32.1	32.1	32.1	48	14.6	2	6	338	0.00	29.978 
17:15	32.2	32.2	32.2	46	13.8	2	6	338	0.00	29.983 
17:20	32.7	32.7	32.7	44	13.2	2	6	270	0.00	29.983 
17:25	32.7	32.7	32.7	44	13.2	3	6	270	0.00	29.983 
17:30	32.5	32.5	32.5	43	12.5	2	5	270	0.00	29.985 
17:35	32.7	32.7	32.7	42	12.2	3	7	270	0.00	29.985 
17:40	32.2	32.2	32.2	42	11.7	3	4	270	0.00	29.985 
17:45	31.8	31.8	31.8	43	11.9	2	7	270	0.00	29.989 
17:50	31.8	31.8	31.8	44	12.4	2	5	270	0.00	29.989 
17:55	31.9	31.9	31.9	44	12.5	1	4	270	0.00	29.989 
18:00	31.8	31.8	31.8	43	11.9	3	6	315	0.00	29.987 
18:05	31.3	31.3	31.3	43	11.4	2	7	315	0.00	29.987 
18:10	31.2	31.2	31.2	44	11.9	2	4	270	0.00	29.987 
18:15	30.9	30.9	30.9	44	11.6	2	4	315	0.00	29.992 
18:20	30.9	30.9	30.9	45	12.1	1	5	338	0.00	29.992 
18:25	31.0	31.0	31.0	46	12.7	2	6	270	0.00	29.992 
18:30	31.0	31.0	31.0	46	12.7	2	6	248	0.00	29.993 
18:35	31.2	31.2	31.2	46	12.9	2	5	248	0.00	29.993 
18:40	31.3	31.3	31.3	45	12.5	1	4	315	0.00	29.993 
18:45	31.3	31.3	31.3	46	12.9	2	6	338	0.00	29.992 
18:50	31.0	31.0	31.0	46	12.7	1	8	270	0.00	29.992 
18:55	31.2	31.2	31.2	47	13.3	0	2	338	0.00	29.992 
19:00	31.2	31.2	31.2	48	13.8	1	4	248	0.00	29.993 
19:05	31.0	31.0	31.0	49	14.1	1	2	248	0.00	29.993 
19:10	30.7	30.7	30.7	50	14.3	1	4	0	0.00	29.993 
19:15	30.4	30.4	30.4	50	14.0	1	4	315	0.00	29.993 
19:20	30.3	30.3	30.3	51	14.4	1	4	270	0.00	29.993 
19:25	30.1	30.1	30.1	51	14.2	1	3	292	0.00	29.993 
19:30	29.8	29.8	29.8	52	14.3	1	4	338	0.00	29.992 
19:35	29.7	29.7	29.7	53	14.7	2	5	292	0.00	29.992 
19:40	29.5	29.5	29.5	53	14.5	1	4	248	0.00	29.992 
19:45	29.3	29.3	29.3	54	14.7	1	3	315	0.00	29.993 
19:50	29.1	29.1	29.1	55	15.0	1	4	338	0.00	29.993 
19:55	29.0	29.0	29.0	55	14.9	1	3	270	0.00	29.993 
20:00	28.7	28.7	28.7	56	15.0	1	4	315	0.00	29.999 
20:05	28.5	28.5	28.5	56	14.8	1	4	248	0.00	29.999 
20:10	28.4	28.4	28.4	57	15.1	1	4	338	0.00	29.999 
20:15	28.2	28.2	28.2	58	15.3	1	3	292	0.00	30.006 
20:20	27.9	27.9	27.9	58	15.1	0	3	292	0.00	30.006 
20:25	27.8	27.8	27.8	58	15.0	1	6	315	0.00	30.006 
20:30	27.6	27.6	27.6	59	15.2	1	3	270	0.00	30.008 
20:35	27.5	27.5	27.5	59	15.1	1	3	270	0.00	30.008 
20:40	27.3	27.3	27.3	59	14.9	0	2	315	0.00	30.008 
20:45	27.2	27.2	27.2	59	14.8	0	2	315	0.00	30.011 
20:50	27.0	27.0	27.0	60	15.0	1	2	315	0.00	30.011 
20:55	27.0	27.0	27.0	60	15.0	1	4	338	0.00	30.011 
21:00	27.0	27.0	27.0	59	14.6	1	2	292	0.00	30.011 
21:05	26.9	26.9	26.9	60	14.9	0	2	292	0.00	30.011 
21:10	26.7	26.7	26.7	60	14.7	0	3	292	0.00	30.011 
21:15	26.6	26.6	26.6	60	14.6	0	3	270	0.00	30.010 
21:20	26.6	26.6	26.6	60	14.6	0	2	270	0.00	30.010 
21:25	26.4	26.4	26.4	61	14.8	0	1	270	0.00	30.010 
21:30	26.3	26.3	26.3	61	14.7	0	1	270	0.00	30.013 
21:35	26.1	26.1	26.1	62	14.9	0	2	270	0.00	30.013 
21:40	26.1	26.1	26.1	62	14.9	0	1	270	0.00	30.013 
21:45	26.0	26.0	26.0	62	14.8	0	1	270	0.00	30.022 
21:50	25.8	25.8	25.8	62	14.6	0	1	270	0.00	30.022 
21:55	25.8	25.8	25.8	63	15.0	0	1	270	0.00	30.022 
22:00	25.7	25.7	25.7	63	14.9	0	1	270	0.00	30.020 
22:05	25.7	25.7	25.7	63	14.9	0	2	270	0.00	30.020 
22:10	25.6	25.6	25.6	63	14.8	0	1	270	0.00	30.020 
22:15	25.6	25.6	25.6	63	14.8	0	1	270	0.00	30.019 
22:20	25.4	25.4	25.4	64	14.9	0	1	270	0.00	30.019 
22:25	25.3	25.3	25.3	64	14.9	0	1	270	0.00	30.019 
22:30	25.1	25.1	25.1	64	14.7	0	1	270	0.00	30.020 
22:35	25.1	25.1	25.1	65	15.0	0	1	270	0.00	30.020 
22:40	25.0	25.0	25.0	65	14.9	0	1	270	0.00	30.020 
22:45	25.0	25.0	25.0	65	14.9	0	1	270	0.00	30.021 
22:50	24.8	24.8	24.8	64	14.4	0	2	270	0.00	30.021 
22:55	24.8	24.8	24.8	64	14.4	0	1	270	0.00	30.021 
23:00	24.8	24.8	24.8	64	14.4	0	1	270	0.00	30.022 
23:05	24.7	24.7	24.7	65	14.6	0	0	---	0.00	30.022 
23:10	24.5	24.5	24.5	65	14.4	0	0	---	0.00	30.022 
23:15	24.4	24.4	24.4	65	14.3	0	1	270	0.00	30.022 
23:20	24.2	24.2	24.2	65	14.2	0	1	270	0.00	30.022 
23:25	24.1	24.1	24.1	66	14.4	0	0	---	0.00	30.022 
23:30	23.9	23.9	23.9	66	14.2	0	0	---	0.00	30.029 
23:35	23.8	23.8	23.8	67	14.5	0	1	270	0.00	30.029 
23:40	23.6	23.6	23.6	67	14.3	0	1	270	0.00	30.029 
23:45	23.6	23.6	23.6	67	14.3	0	1	270	0.00	30.028 
23:50	23.5	23.5	23.5	67	14.2	0	2	270	0.00	30.028 
23:55	23.5	23.5	23.5	67	14.2	0	1	270	0.00	30.028 

CoCoRaHS
IN-AL-39
A2 Web Hosting
Creative Commons License
GoDaddy
search engine by freefind advanced

loaded 2018-11-15 18:31:03 • last modified 2010-11-18 10:43:29
Privacy PolicyDisclaimer
• wx.awcolley.com is powered by PmWiki v.2002016 •
• all content (unless otherwise noted) © 2018 A W Colley